Time;durP1;ratioP1;P1;durP2;ratioP2;P2;SDS_P1;SDS_P2;PMS_P1;PMS_P2;Temp;Humidity;BMP_temperature;BMP_pressure;BME280_temperature;BME280_humidity;BME280_pressure;Samples;Min_cycle;Max_cycle;Signal;HPM_P1;HPM_P2
2022/07/31 00:01:30;;;;;;;2.57;1.50;;;;;;;17.37;67.27;94287.91;5059822;28;20216;-89
2022/07/31 00:04:14;;;;;;;3.23;1.80;;;;;;;17.39;67.64;94299.34;5062823;28;20556;-89
2022/07/31 00:07:02;;;;;;;4.17;2.00;;;;;;;17.34;67.83;94292.72;5063849;28;20208;-88
2022/07/31 00:09:46;;;;;;;2.17;1.73;;;;;;;17.32;67.52;94286.97;5056812;28;20251;-90
2022/07/31 00:12:31;;;;;;;3.03;1.50;;;;;;;17.33;67.46;94288.44;5073807;28;20254;-90
2022/07/31 00:15:15;;;;;;;2.30;1.80;;;;;;;17.26;68.03;94288.75;5056672;28;20249;-89
2022/07/31 00:17:59;;;;;;;1.93;1.50;;;;;;;17.18;68.40;94291.88;5082363;28;20196;-90
2022/07/31 00:20:45;;;;;;;2.20;1.77;;;;;;;17.18;67.99;94274.91;5070709;28;20213;-86
2022/07/31 00:23:30;;;;;;;3.13;1.83;;;;;;;17.25;67.49;94276.69;5067647;28;20196;-86
2022/07/31 00:26:14;;;;;;;2.07;1.80;;;;;;;17.20;67.37;94286.34;5073762;28;20342;-86
2022/07/31 00:28:59;;;;;;;1.97;1.87;;;;;;;17.14;67.93;94283.19;5073894;28;20205;-87
2022/07/31 00:31:43;;;;;;;3.83;2.10;;;;;;;17.21;67.96;94282.16;5073242;28;20309;-86
2022/07/31 00:34:28;;;;;;;2.77;2.00;;;;;;;17.24;67.44;94275.22;5072554;28;20208;-86
2022/07/31 00:37:14;;;;;;;2.33;1.63;;;;;;;17.22;67.24;94283.59;5111015;28;20223;-88
2022/07/31 00:40:05;;;;;;;1.83;1.60;;;;;;;17.24;67.27;94280.88;5101209;28;20271;-89
2022/07/31 00:42:50;;;;;;;1.80;1.70;;;;;;;17.19;67.89;94284.88;5076462;28;20208;-89
2022/07/31 00:45:34;;;;;;;2.27;2.00;;;;;;;17.14;68.07;94283.19;5090027;28;20288;-86
2022/07/31 00:48:18;;;;;;;4.67;2.50;;;;;;;17.11;67.84;94278.03;5078727;28;20266;-86
2022/07/31 00:51:03;;;;;;;1.87;1.73;;;;;;;17.08;68.07;94277.22;5064026;28;20243;-86
2022/07/31 00:53:46;;;;;;;2.30;1.70;;;;;;;17.05;67.77;94269.22;5064293;28;20272;-86
2022/07/31 00:56:31;;;;;;;2.10;1.80;;;;;;;16.85;69.51;94280.22;5079526;28;20199;-87
2022/07/31 00:59:15;;;;;;;3.10;2.13;;;;;;;16.65;71.16;94268.53;5074873;28;20243;-89
2022/07/31 01:02:00;;;;;;;2.23;1.90;;;;;;;16.60;71.26;94277.44;5078886;28;20251;-88
2022/07/31 01:04:49;;;;;;;5.10;2.20;;;;;;;16.50;71.25;94278.31;5080255;28;20238;-88
2022/07/31 01:07:34;;;;;;;3.90;2.00;;;;;;;16.39;72.27;94281.94;5068389;28;20208;-89
2022/07/31 01:10:34;;;;;;;2.53;2.10;;;;;;;16.34;72.21;94280.25;5076296;28;20303;-88
2022/07/31 01:13:42;;;;;;;2.13;1.80;;;;;;;16.33;72.04;94284.44;5063384;28;20216;-90
2022/07/31 01:16:32;;;;;;;3.60;2.20;;;;;;;16.34;72.04;94280.25;5077127;28;20192;-88
2022/07/31 01:19:36;;;;;;;2.40;2.03;;;;;;;16.38;72.02;94280.47;5074443;28;20625;-89
2022/07/31 01:22:42;;;;;;;6.03;2.00;;;;;;;16.30;72.19;94280.00;5058198;28;20208;-88
2022/07/31 01:25:47;;;;;;;2.63;1.73;;;;;;;16.26;72.90;94274.16;5061204;28;20291;-88
2022/07/31 01:28:43;;;;;;;2.57;2.27;;;;;;;16.22;73.19;94278.84;5071724;28;20193;-88
2022/07/31 01:31:36;;;;;;;2.63;2.40;;;;;;;16.13;74.42;94277.66;5056528;28;20632;-89
2022/07/31 01:34:23;;;;;;;3.20;2.50;;;;;;;16.17;74.64;94277.84;5069101;28;20223;-88
2022/07/31 01:37:15;;;;;;;2.80;2.50;;;;;;;16.00;76.01;94275.47;5063103;28;20577;-88
2022/07/31 01:40:09;;;;;;;2.47;2.27;;;;;;;15.97;75.41;94265.44;5066124;28;20275;-89
2022/07/31 01:43:04;;;;;;;2.50;2.30;;;;;;;15.69;77.31;94270.91;5058928;28;20191;-88
2022/07/31 01:46:00;;;;;;;3.73;2.30;;;;;;;15.72;77.15;94264.03;5059561;28;20246;-89
2022/07/31 01:48:47;;;;;;;2.80;2.33;;;;;;;15.72;77.39;94266.88;5066286;28;20323;-89
2022/07/31 01:51:33;;;;;;;2.53;2.33;;;;;;;15.76;77.01;94267.09;5065248;28;20341;-88
2022/07/31 01:54:21;;;;;;;2.80;2.60;;;;;;;15.80;76.79;94258.09;5074035;28;20262;-88
2022/07/31 01:57:07;;;;;;;3.00;2.60;;;;;;;15.77;77.02;94271.41;5060335;28;20215;-88
2022/07/31 01:59:59;;;;;;;5.60;2.97;;;;;;;15.82;77.29;94266.72;5073201;28;20569;-88
2022/07/31 02:03:04;;;;;;;3.47;2.43;;;;;;;15.80;77.55;94268.69;5057198;28;20240;-86
2022/07/31 02:05:59;;;;;;;5.10;2.40;;;;;;;15.84;77.15;94263.28;5038998;28;20236;-86
2022/07/31 02:08:46;;;;;;;4.40;2.77;;;;;;;15.83;77.20;94261.78;5057312;28;20303;-86
2022/07/31 02:11:32;;;;;;;2.70;2.50;;;;;;;15.85;77.15;94264.75;5056788;28;20304;-86
2022/07/31 02:14:19;;;;;;;3.20;2.40;;;;;;;15.84;77.64;94264.00;5077772;28;20200;-86
2022/07/31 02:17:04;;;;;;;3.73;2.53;;;;;;;15.82;78.18;94261.06;5061743;28;20208;-86
2022/07/31 02:20:12;;;;;;;2.77;2.57;;;;;;;15.76;78.10;94269.19;5086316;28;20219;-86
2022/07/31 02:22:57;;;;;;;2.83;2.37;;;;;;;15.80;78.12;94263.03;5079601;28;20239;-87
2022/07/31 02:25:43;;;;;;;4.50;2.87;;;;;;;15.92;77.50;94266.56;5095667;28;20261;-86
2022/07/31 02:28:31;;;;;;;3.33;2.63;;;;;;;16.03;76.90;94262.94;5078716;28;20328;-88
2022/07/31 02:31:17;;;;;;;2.93;2.50;;;;;;;16.15;75.88;94266.47;5060660;28;20227;-85
2022/07/31 02:34:03;;;;;;;3.77;2.33;;;;;;;16.31;74.61;94256.03;5058525;28;20216;-86
2022/07/31 02:36:48;;;;;;;2.53;2.23;;;;;;;16.50;73.94;94263.44;5051878;28;20251;-87
2022/07/31 02:39:35;;;;;;;3.37;2.60;;;;;;;16.66;73.41;94263.63;5059581;28;20212;-87
2022/07/31 02:42:21;;;;;;;2.87;2.67;;;;;;;16.53;75.04;94262.19;5078753;28;20317;-85
2022/07/31 02:45:07;;;;;;;4.23;3.83;;;;;;;16.45;75.71;94262.47;5080345;28;20200;-87
2022/07/31 02:47:52;;;;;;;2.60;2.33;;;;;;;16.39;76.08;94259.31;5057065;28;20591;-87
2022/07/31 02:50:37;;;;;;;3.20;2.67;;;;;;;16.43;76.53;94258.81;5066517;28;20247;-86
2022/07/31 02:53:22;;;;;;;3.90;3.20;;;;;;;16.49;76.30;94257.03;5071778;28;20192;-87
2022/07/31 02:56:12;;;;;;;3.93;2.83;;;;;;;16.71;75.10;94254.72;5063376;28;20282;-87
2022/07/31 02:58:58;;;;;;;3.47;2.50;;;;;;;16.90;73.62;94253.59;5070656;28;20209;-87
2022/07/31 03:01:47;;;;;;;2.90;2.70;;;;;;;16.98;73.26;94259.69;5053596;28;20274;-87
2022/07/31 03:04:31;;;;;;;3.63;2.40;;;;;;;17.13;71.73;94259.06;5060211;28;20604;-88
2022/07/31 03:07:16;;;;;;;2.80;2.60;;;;;;;17.10;73.17;94249.00;5064342;28;20212;-88
2022/07/31 03:10:01;;;;;;;3.40;2.70;;;;;;;17.14;73.20;94254.88;5061775;28;20727;-86
2022/07/31 03:13:01;;;;;;;2.53;2.23;;;;;;;17.16;73.18;94249.31;5076343;28;20236;-87
2022/07/31 03:15:49;;;;;;;5.23;2.77;;;;;;;17.17;72.55;94252.88;5068983;28;20724;-86
2022/07/31 03:18:34;;;;;;;7.90;3.00;;;;;;;17.25;72.72;94251.19;5081026;28;20200;-86
2022/07/31 03:21:19;;;;;;;5.73;2.83;;;;;;;17.24;72.29;94255.41;5075304;28;20247;-86
2022/07/31 03:24:05;;;;;;;5.53;2.60;;;;;;;17.26;72.77;94261.16;5074391;28;20203;-86
2022/07/31 03:26:50;;;;;;;4.53;2.80;;;;;;;17.29;72.63;94259.16;5069787;28;20281;-87
2022/07/31 03:29:38;;;;;;;3.27;2.63;;;;;;;17.33;72.31;94265.78;5069085;28;20232;-87
2022/07/31 03:32:23;;;;;;;2.67;2.47;;;;;;;17.28;72.74;94266.91;5085261;28;20250;-86
2022/07/31 03:35:08;;;;;;;3.10;2.30;;;;;;;17.24;72.40;94263.88;5078461;28;20268;-86
2022/07/31 03:37:52;;;;;;;2.67;2.47;;;;;;;17.28;70.53;94266.91;5083408;28;20226;-86
2022/07/31 03:40:37;;;;;;;3.43;2.03;;;;;;;17.35;71.64;94270.81;5067463;28;20208;-86
2022/07/31 03:43:22;;;;;;;5.53;2.30;;;;;;;17.23;71.46;94259.59;5090528;28;20200;-86
2022/07/31 03:46:08;;;;;;;6.90;3.00;;;;;;;17.26;71.64;94261.16;5078327;28;20204;-87
2022/07/31 03:48:52;;;;;;;4.77;2.43;;;;;;;17.18;71.82;94266.41;5077961;28;20231;-86
2022/07/31 03:51:37;;;;;;;3.20;2.20;;;;;;;17.26;71.42;94261.16;5074205;28;20241;-86
2022/07/31 03:54:22;;;;;;;2.57;2.27;;;;;;;17.35;70.55;94256.63;5062222;28;20274;-86
2022/07/31 03:57:11;;;;;;;2.50;2.30;;;;;;;17.18;73.01;94246.59;5079568;28;20208;-86
2022/07/31 04:00:01;;;;;;;2.87;2.40;;;;;;;17.07;74.92;94250.25;5059960;28;20261;-87
2022/07/31 04:02:46;;;;;;;5.97;2.67;;;;;;;17.14;73.86;94254.88;5054577;28;20289;-87
2022/07/31 04:05:55;;;;;;;5.63;2.60;;;;;;;17.09;74.09;94253.19;5070534;28;20247;-87
2022/07/31 04:08:41;;;;;;;3.00;2.60;;;;;;;17.09;74.75;94264.53;5091005;28;20216;-87
2022/07/31 04:11:25;;;;;;;4.07;2.50;;;;;;;17.21;74.05;94264.44;5085805;28;20262;-87
2022/07/31 04:14:10;;;;;;;3.10;2.30;;;;;;;17.15;73.01;94255.63;5087979;28;20239;-86
2022/07/31 04:16:55;;;;;;;2.67;2.47;;;;;;;17.04;74.25;94262.81;5080311;28;20195;-87
2022/07/31 04:19:41;;;;;;;2.70;2.50;;;;;;;17.02;73.68;94259.91;5060786;28;20188;-87
2022/07/31 04:22:25;;;;;;;3.90;2.60;;;;;;;17.00;73.86;94268.28;5065124;28;20223;-87
2022/07/31 04:25:10;;;;;;;2.97;2.63;;;;;;;17.01;73.97;94261.25;5050224;28;20232;-86
2022/07/31 04:28:30;;;;;;;4.23;3.20;;;;;;;16.92;75.38;94267.84;5046320;28;20206;-87
2022/07/31 04:31:14;;;;;;;3.30;2.97;;;;;;;16.93;74.63;94272.88;5076643;28;20530;-87
2022/07/31 04:33:59;;;;;;;3.10;2.73;;;;;;;16.92;74.81;94273.50;5077934;28;20208;-87
2022/07/31 04:36:44;;;;;;;4.43;3.10;;;;;;;16.94;74.81;94282.13;5059391;28;20688;-87
2022/07/31 04:39:29;;;;;;;4.30;3.00;;;;;;;16.97;73.61;94278.75;5065247;28;20200;-87
2022/07/31 04:42:14;;;;;;;4.57;2.60;;;;;;;17.01;74.01;94289.56;5074575;28;20600;-87
2022/07/31 04:44:59;;;;;;;5.10;2.77;;;;;;;17.02;73.40;94287.47;5070467;28;20207;-87
2022/07/31 04:47:43;;;;;;;5.67;3.00;;;;;;;17.11;73.86;94290.09;5075247;28;20228;-89
2022/07/31 04:50:28;;;;;;;3.17;2.87;;;;;;;17.10;74.31;94288.63;5079191;28;20716;-88
2022/07/31 04:53:13;;;;;;;4.37;2.60;;;;;;;17.07;73.00;94284.22;5063364;28;20258;-89
2022/07/31 04:59:06;;;;;;;5.63;2.87;;;;;;;16.95;73.44;94284.31;5077647;28;20276;-86
2022/07/31 05:01:53;;;;;;;4.37;2.37;;;;;;;16.82;74.61;94287.13;5074560;28;20204;-87
2022/07/31 05:04:41;;;;;;;4.90;2.47;;;;;;;16.90;73.87;94281.91;5082471;28;20200;-86
2022/07/31 05:07:25;;;;;;;4.07;2.80;;;;;;;16.96;73.68;94290.72;5080913;28;20309;-86
2022/07/31 05:11:21;;;;;;;2.97;2.67;;;;;;;17.12;73.57;94285.91;5072725;28;20273;-87
2022/07/31 05:13:13;;;;;;;3.80;2.43;;;;;;;17.11;73.90;94284.44;5078224;28;20258;-86
2022/07/31 05:15:59;;;;;;;10.80;2.50;;;;;;;17.25;74.09;94288.03;5068876;28;20229;-85
2022/07/31 05:18:44;;;;;;;3.87;2.40;;;;;;;17.27;73.06;94288.13;5076732;28;20254;-86
2022/07/31 05:21:38;;;;;;;3.30;2.40;;;;;;;17.45;71.42;94279.84;5088023;28;20286;-87
2022/07/31 05:24:41;;;;;;;5.07;2.40;;;;;;;17.44;72.22;94280.47;5064384;28;20199;-87
2022/07/31 05:27:28;;;;;;;3.00;2.70;;;;;;;17.78;69.68;94285.06;5070073;28;20216;-86
2022/07/31 05:30:13;;;;;;;2.50;2.30;;;;;;;17.94;70.65;94285.88;5068890;28;20270;-87
2022/07/31 05:32:57;;;;;;;3.10;2.40;;;;;;;17.97;69.96;94278.94;5069514;28;20247;-87
2022/07/31 05:35:42;;;;;;;2.53;2.30;;;;;;;18.05;70.67;94279.34;5066552;28;20687;-87
2022/07/31 05:38:27;;;;;;;2.60;2.40;;;;;;;18.18;70.96;94281.41;5064389;28;20240;-87
2022/07/31 05:41:35;;;;;;;2.60;2.40;;;;;;;18.30;70.54;94280.53;5080535;28;20199;-87
2022/07/31 05:44:42;;;;;;;2.77;2.13;;;;;;;18.54;71.08;94290.19;5059772;28;20587;-87
2022/07/31 05:47:26;;;;;;;5.03;2.40;;;;;;;19.20;68.28;94297.53;5063981;28;20688;-87
2022/07/31 05:50:10;;;;;;;5.33;2.33;;;;;;;19.14;68.49;94288.72;5076308;28;20609;-86
2022/07/31 05:52:55;;;;;;;6.97;2.67;;;;;;;19.34;69.06;94289.66;5076157;28;20227;-87
2022/07/31 05:56:12;;;;;;;3.03;2.13;;;;;;;19.64;66.21;94295.97;5057770;28;20203;-87
2022/07/31 05:58:59;;;;;;;5.00;2.20;;;;;;;19.65;65.51;94292.47;5077355;28;20200;-88
2022/07/31 06:01:45;;;;;;;3.27;1.90;;;;;;;19.81;63.90;94298.13;5071047;28;20235;-87
2022/07/31 06:04:29;;;;;;;2.30;2.07;;;;;;;19.93;65.97;94301.50;5058826;28;20266;-87
2022/07/31 06:07:14;;;;;;;4.67;1.90;;;;;;;19.85;62.90;94289.03;5067354;28;20208;-87
2022/07/31 06:10:03;;;;;;;4.30;1.92;;;;;;;20.40;61.78;94289.94;5074638;28;20232;-87
2022/07/31 06:12:48;;;;;;;4.90;1.92;;;;;;;20.63;60.15;94293.69;5077246;28;20250;-88
2022/07/31 06:15:32;;;;;;;1.85;1.60;;;;;;;20.79;59.39;94300.03;5071513;28;20216;-88
2022/07/31 06:18:16;;;;;;;1.70;1.40;;;;;;;20.82;58.14;94301.56;5075821;28;20287;-87
2022/07/31 06:21:00;;;;;;;4.18;1.88;;;;;;;21.24;57.60;94300.38;5074797;28;20200;-87
2022/07/31 06:23:45;;;;;;;1.88;1.65;;;;;;;20.99;60.22;94306.50;5057108;28;20250;-86
2022/07/31 06:26:37;;;;;;;3.80;1.88;;;;;;;20.63;59.27;94310.78;5061352;28;20259;-87
2022/07/31 06:29:23;;;;;;;3.85;2.13;;;;;;;20.73;59.26;94296.94;5069730;28;20219;-88
2022/07/31 06:32:07;;;;;;;3.35;1.90;;;;;;;21.03;57.88;94300.97;5057814;28;20192;-86
2022/07/31 06:34:51;;;;;;;2.53;1.80;;;;;;;20.93;57.04;94303.41;5066841;28;20241;-87
2022/07/31 06:37:35;;;;;;;4.20;1.48;;;;;;;21.06;57.67;94305.34;5074183;28;20343;-87
2022/07/31 06:40:20;;;;;;;2.28;1.83;;;;;;;21.24;58.88;94303.22;5060946;28;20200;-87
2022/07/31 06:43:29;;;;;;;2.38;1.98;;;;;;;21.47;58.48;94301.19;5100181;28;20247;-87
2022/07/31 06:46:42;;;;;;;3.67;1.98;;;;;;;21.27;56.80;94301.91;5074033;28;20594;-88
2022/07/31 06:49:54;;;;;;;4.35;1.80;;;;;;;21.16;59.90;94310.75;5079810;28;20227;-87
2022/07/31 06:52:41;;;;;;;3.78;1.48;;;;;;;21.12;58.35;94308.44;5071390;28;20200;-90
2022/07/31 06:55:26;;;;;;;3.22;1.90;;;;;;;21.00;58.84;94305.13;5076563;28;20228;-89
2022/07/31 06:58:09;;;;;;;2.00;1.38;;;;;;;21.09;56.75;94309.75;5073576;28;20212;-87
2022/07/31 07:00:53;;;;;;;1.58;1.48;;;;;;;21.28;55.31;94306.22;5059889;28;20187;-88
2022/07/31 07:03:37;;;;;;;2.17;1.67;;;;;;;21.35;56.69;94307.91;5059548;28;20254;-87
2022/07/31 07:06:22;;;;;;;3.40;1.88;;;;;;;21.25;56.43;94310.38;5083466;28;20228;-87
2022/07/31 07:09:06;;;;;;;2.72;2.00;;;;;;;21.37;57.59;94313.69;5057346;28;20238;-88
2022/07/31 07:11:50;;;;;;;3.85;1.80;;;;;;;21.60;54.87;94320.22;5075739;28;20285;-89
2022/07/31 07:14:34;;;;;;;6.05;1.70;;;;;;;21.31;55.94;94309.88;5070466;28;20208;-88
2022/07/31 07:17:19;;;;;;;2.35;1.40;;;;;;;21.66;55.44;94309.03;5062931;28;20240;-90
2022/07/31 07:20:07;;;;;;;2.05;1.95;;;;;;;21.31;56.31;94312.72;5062062;28;20292;-90
2022/07/31 07:22:51;;;;;;;3.92;1.75;;;;;;;21.65;55.83;94310.41;5058368;28;20243;-92
2022/07/31 07:25:53;;;;;;;4.38;1.98;;;;;;;21.84;55.36;94309.69;5055235;28;20693;-84
2022/07/31 07:28:38;;;;;;;4.88;1.60;;;;;;;21.58;55.41;94300.91;5081194;28;20207;-92
2022/07/31 07:31:24;;;;;;;4.03;1.83;;;;;;;21.66;55.61;94309.03;5056658;28;20220;-87
2022/07/31 07:34:09;;;;;;;5.75;2.22;;;;;;;21.42;56.22;94305.31;5057000;28;20196;-90
2022/07/31 07:36:54;;;;;;;3.85;2.13;;;;;;;21.71;56.27;94302.09;5052420;28;20254;-90
2022/07/31 07:39:41;;;;;;;5.68;1.75;;;;;;;21.95;55.38;94308.66;5066714;28;20204;-90
2022/07/31 07:42:27;;;;;;;6.07;1.70;;;;;;;21.90;55.20;94298.47;5072589;28;20199;-89
2022/07/31 07:45:13;;;;;;;4.22;1.58;;;;;;;22.01;56.32;94297.47;5059451;28;20222;-92
2022/07/31 07:47:59;;;;;;;2.03;1.80;;;;;;;21.99;55.36;94303.09;5076009;28;20247;-86
2022/07/31 07:50:46;;;;;;;2.10;1.75;;;;;;;21.93;54.71;94302.84;5077203;28;20230;-93
2022/07/31 07:53:43;;;;;;;2.85;1.58;;;;;;;22.70;54.97;94296.16;5080053;28;20641;-92
2022/07/31 07:57:00;;;;;;;6.07;1.73;;;;;;;23.14;51.33;94285.41;4996715;28;20259;-94
2022/07/31 08:00:09;;;;;;;6.57;1.63;;;;;;;22.82;52.69;94297.31;4976014;28;20214;-89
2022/07/31 08:03:20;;;;;;;4.35;1.67;;;;;;;22.27;54.17;94299.75;5065174;28;20221;-93
2022/07/31 08:06:07;;;;;;;3.55;1.70;;;;;;;23.46;53.59;94297.78;5055133;28;20255;-93
2022/07/31 08:08:51;;;;;;;4.82;1.88;;;;;;;24.26;51.54;94303.59;5081011;28;20215;-93
2022/07/31 08:11:55;;;;;;;3.08;1.70;;;;;;;24.63;49.44;94288.09;5079613;28;20204;-88
2022/07/31 08:15:04;;;;;;;3.83;1.48;;;;;;;23.89;47.95;94276.13;5092970;28;20208;-93
2022/07/31 08:18:07;;;;;;;5.63;1.65;;;;;;;23.99;48.79;94287.84;5079619;28;20212;-87
2022/07/31 08:20:52;;;;;;;2.28;1.50;;;;;;;24.88;48.42;94287.97;5065945;28;20284;-93
2022/07/31 08:23:37;;;;;;;2.30;1.30;;;;;;;25.35;45.99;94283.31;5072396;28;20288;-85
2022/07/31 08:26:23;;;;;;;2.20;1.48;;;;;;;24.54;47.42;94293.63;5070558;28;20755;-95
2022/07/31 08:29:07;;;;;;;2.03;1.50;;;;;;;24.43;46.90;94289.03;5063656;28;20212;-89
2022/07/31 08:31:51;;;;;;;1.40;1.30;;;;;;;25.15;48.19;94295.06;5064453;28;20212;-89
2022/07/31 08:35:02;;;;;;;3.78;1.50;;;;;;;25.04;47.64;94296.25;5056573;28;20605;-90
2022/07/31 08:37:46;;;;;;;3.20;1.50;;;;;;;25.34;47.61;94281.84;5077029;28;20199;-87
2022/07/31 08:40:33;;;;;;;3.17;1.50;;;;;;;25.75;45.81;94287.03;5081146;28;20203;-93
2022/07/31 08:43:17;;;;;;;1.52;1.30;;;;;;;25.76;45.10;94291.38;5082020;28;20196;-86
2022/07/31 08:46:04;;;;;;;3.40;1.48;;;;;;;26.37;44.41;94292.53;5074615;28;20669;-94
2022/07/31 08:48:55;;;;;;;3.33;1.40;;;;;;;26.78;43.33;94281.75;5065694;28;20230;-93
2022/07/31 08:51:42;;;;;;;2.28;1.23;;;;;;;25.99;43.58;94294.69;5058514;28;20211;-95
2022/07/31 08:55:06;;;;;;;1.80;1.30;;;;;;;26.71;42.64;94278.06;5076389;28;20204;-87
2022/07/31 08:57:51;;;;;;;2.97;1.38;;;;;;;26.74;41.70;94305.41;5072682;28;20219;-93
2022/07/31 09:00:36;;;;;;;2.60;1.40;;;;;;;25.77;43.31;94294.97;5063799;28;20239;-87
2022/07/31 09:03:22;;;;;;;1.60;1.30;;;;;;;26.95;42.14;94297.88;5077160;28;20219;-87
2022/07/31 09:06:18;;;;;;;3.20;1.30;;;;;;;26.94;42.12;94293.53;5064766;28;20554;-91
2022/07/31 09:09:03;;;;;;;3.22;1.40;;;;;;;25.92;41.16;94296.72;5073645;28;20341;-87
2022/07/31 09:11:53;;;;;;;1.83;1.27;;;;;;;26.31;41.12;94295.31;5071448;28;20309;-89
2022/07/31 09:15:27;;;;;;;4.22;1.38;;;;;;;26.06;42.24;94294.09;5069421;28;20231;-94
2022/07/31 09:18:34;;;;;;;1.52;1.33;;;;;;;25.93;42.13;94275.19;5085711;28;20276;-93
2022/07/31 09:21:47;;;;;;;2.75;1.40;;;;;;;26.56;40.81;94293.59;5032976;22;20235;-57
2022/07/31 09:24:34;;;;;;;3.28;1.30;;;;;;;26.40;40.41;94278.97;4988655;28;20213;-57
2022/07/31 09:27:18;;;;;;;1.90;1.27;;;;;;;26.21;41.62;94275.00;4993455;28;20247;-57
2022/07/31 09:30:03;;;;;;;2.90;1.33;;;;;;;26.55;39.64;94277.75;4993649;28;20336;-57
2022/07/31 09:33:28;;;;;;;1.35;0.93;;;;;;;26.12;40.16;94274.13;5007627;28;20698;-55
2022/07/31 09:36:31;;;;;;;1.67;1.30;;;;;;;25.99;41.31;94286.78;5020708;28;20202;-56
2022/07/31 09:39:23;;;;;;;3.47;0.90;;;;;;;26.04;43.14;94274.00;4989617;28;20254;-56
2022/07/31 09:42:43;;;;;;;1.98;1.10;;;;;;;26.13;42.38;94287.06;5007092;28;20199;-56
2022/07/31 09:45:36;;;;;;;2.58;1.38;;;;;;;25.57;43.00;94285.94;5002361;28;20259;-57
2022/07/31 09:48:21;;;;;;;2.08;1.50;;;;;;;25.10;42.75;94287.78;5008317;28;20221;-56
2022/07/31 09:51:07;;;;;;;2.60;1.30;;;;;;;25.89;42.15;94288.75;4993980;28;20226;-55
2022/07/31 09:53:56;;;;;;;1.52;1.10;;;;;;;25.86;40.94;94279.34;4993448;28;20202;-56
2022/07/31 09:57:15;;;;;;;2.72;1.42;;;;;;;26.71;39.70;94283.81;4937403;29;20499;-55
2022/07/31 10:00:09;;;;;;;7.82;1.50;;;;;;;26.45;42.15;94281.22;4984204;28;20684;-57
2022/07/31 10:02:59;;;;;;;4.68;1.27;;;;;;;26.03;40.06;94278.28;5011509;28;20294;-55
2022/07/31 10:05:45;;;;;;;2.63;1.58;;;;;;;25.32;40.84;94273.94;4995547;28;20345;-56
2022/07/31 10:08:34;;;;;;;3.25;1.27;;;;;;;25.39;40.48;94283.41;4998721;28;20633;-56
2022/07/31 10:11:54;;;;;;;1.73;1.10;;;;;;;25.97;39.07;94275.28;4967759;28;20647;-56
2022/07/31 10:14:42;;;;;;;2.80;0.95;;;;;;;27.18;37.56;94284.53;4985534;28;20223;-56
2022/07/31 10:17:29;;;;;;;1.38;1.08;;;;;;;27.08;36.51;94284.38;4991886;28;20308;-57
2022/07/31 10:20:31;;;;;;;2.60;1.27;;;;;;;27.92;35.14;94275.44;4992324;28;20264;-56
2022/07/31 10:23:29;;;;;;;1.42;1.00;;;;;;;27.26;36.25;94278.91;5006501;28;20226;-56
2022/07/31 10:26:15;;;;;;;1.20;1.10;;;;;;;27.15;36.73;94277.31;4985734;28;20650;-56
2022/07/31 10:29:01;;;;;;;1.75;1.00;;;;;;;27.65;36.57;94285.94;4999638;28;20309;-56
2022/07/31 10:31:46;;;;;;;0.95;0.90;;;;;;;27.30;35.43;94276.81;5004614;28;20309;-56
2022/07/31 10:34:32;;;;;;;1.10;1.00;;;;;;;27.24;36.78;94273.84;5009271;28;20213;-56
2022/07/31 10:37:43;;;;;;;1.45;1.20;;;;;;;27.54;36.25;94285.06;5006203;28;20572;-57
2022/07/31 10:40:54;;;;;;;2.22;1.10;;;;;;;27.43;35.36;94277.69;4987268;28;20299;-56
2022/07/31 10:43:48;;;;;;;1.80;1.15;;;;;;;27.20;36.96;94284.56;5000800;28;20207;-57
2022/07/31 10:47:15;;;;;;;3.10;1.20;;;;;;;27.16;36.69;94285.22;4986514;28;20238;-57
2022/07/31 10:50:26;;;;;;;1.80;1.20;;;;;;;26.95;39.50;94284.22;4995595;28;20326;-56
2022/07/31 10:53:29;;;;;;;2.80;1.45;;;;;;;26.96;37.67;94273.44;4994296;28;20210;-56
2022/07/31 10:56:23;;;;;;;3.10;0.90;;;;;;;27.99;36.42;94271.94;4987755;28;20257;-57
2022/07/31 10:59:28;;;;;;;1.80;1.20;;;;;;;28.39;34.25;94265.88;5004234;28;20287;-57
2022/07/31 11:02:32;;;;;;;1.20;1.10;;;;;;;28.26;34.63;94270.09;4988033;28;20239;-56
2022/07/31 11:05:58;;;;;;;1.23;1.10;;;;;;;27.52;35.29;94264.16;4989169;28;20207;-58
2022/07/31 11:09:02;;;;;;;1.52;0.90;;;;;;;27.39;36.16;94257.50;5001498;28;20325;-57
2022/07/31 11:12:03;;;;;;;3.00;1.20;;;;;;;27.86;35.95;94260.97;5002746;28;20343;-56
2022/07/31 11:14:58;;;;;;;1.52;1.17;;;;;;;27.90;36.69;94269.69;4995127;28;20391;-57
2022/07/31 11:17:57;;;;;;;2.35;1.10;;;;;;;28.97;34.93;94273.63;4974982;28;20202;-57
2022/07/31 11:20:46;;;;;;;3.67;0.93;;;;;;;28.95;30.75;94273.59;5004491;28;20209;-57
2022/07/31 11:23:31;;;;;;;1.98;1.08;;;;;;;28.99;32.10;94264.25;5002347;28;20202;-57
2022/07/31 11:26:16;;;;;;;2.10;1.00;;;;;;;27.77;33.02;94263.75;5003674;28;20286;-56
2022/07/31 11:29:00;;;;;;;1.23;0.90;;;;;;;28.10;33.04;94264.13;5003409;28;20273;-57
2022/07/31 11:31:44;;;;;;;3.42;1.15;;;;;;;28.88;34.15;94260.56;5007244;28;20669;-57
2022/07/31 11:34:27;;;;;;;3.08;0.90;;;;;;;29.44;30.62;94263.09;4999159;28;20318;-57
2022/07/31 11:37:20;;;;;;;2.05;1.10;;;;;;;29.78;31.54;94265.44;5007324;28;20261;-56
2022/07/31 11:40:05;;;;;;;3.53;1.02;;;;;;;28.50;32.84;94250.16;5003419;28;20559;-57
2022/07/31 11:42:50;;;;;;;3.40;0.90;;;;;;;27.91;34.38;94253.81;4994979;28;22062;-57
2022/07/31 11:45:50;;;;;;;3.47;1.25;;;;;;;28.15;33.85;94254.84;5006307;28;20289;-57
2022/07/31 11:48:37;;;;;;;2.00;1.00;;;;;;;28.18;33.69;94241.19;4994599;28;20193;-57
2022/07/31 11:51:23;;;;;;;2.33;1.23;;;;;;;27.73;34.94;94240.66;4996312;28;20581;-57
2022/07/31 11:54:07;;;;;;;1.67;1.10;;;;;;;27.63;35.26;94240.56;5014640;28;20206;-56
2022/07/31 11:56:53;;;;;;;1.13;1.02;;;;;;;28.14;34.39;94238.28;4986341;28;20197;-57
2022/07/31 11:59:38;;;;;;;1.85;1.00;;;;;;;28.12;35.28;94243.97;5003687;28;20739;-57
2022/07/31 12:02:22;;;;;;;1.15;0.88;;;;;;;28.69;33.80;94236.59;5004738;28;20660;-57
2022/07/31 12:05:06;;;;;;;1.33;0.93;;;;;;;27.82;35.90;94240.78;5014292;28;20695;-56
2022/07/31 12:07:51;;;;;;;3.63;1.27;;;;;;;28.44;31.92;94235.69;5006861;28;20203;-57
2022/07/31 12:10:37;;;;;;;1.75;1.02;;;;;;;28.02;33.29;94223.72;5009469;28;20645;-57
2022/07/31 12:13:22;;;;;;;2.88;1.25;;;;;;;28.00;33.83;94215.78;4991379;28;20203;-57
2022/07/31 12:16:09;;;;;;;1.23;0.85;;;;;;;27.64;34.58;94221.13;5001178;28;20370;-57
2022/07/31 12:18:57;;;;;;;1.13;1.02;;;;;;;27.63;34.79;94231.94;5009423;28;20258;-58
2022/07/31 12:21:42;;;;;;;3.65;1.27;;;;;;;27.28;35.45;94227.84;5012381;28;20225;-57
2022/07/31 12:24:26;;;;;;;1.17;0.90;;;;;;;28.15;35.01;94231.06;5006475;28;20597;-57
2022/07/31 12:27:15;;;;;;;1.30;1.00;;;;;;;28.01;34.22;94228.03;5005668;28;20289;-62
2022/07/31 12:30:10;;;;;;;1.80;0.95;;;;;;;28.07;33.23;94225.22;5003952;28;20333;-63
2022/07/31 12:33:04;;;;;;;1.45;1.08;;;;;;;28.38;32.54;94223.38;5006258;28;20570;-56
2022/07/31 12:35:48;;;;;;;5.10;0.90;;;;;;;28.23;33.25;94218.88;5002398;28;20226;-56
2022/07/31 12:38:32;;;;;;;1.30;0.90;;;;;;;28.33;33.64;94221.88;4995377;28;20389;-57
2022/07/31 12:41:16;;;;;;;1.40;1.08;;;;;;;27.81;32.95;94210.50;4998608;28;20679;-58
2022/07/31 12:44:11;;;;;;;0.98;0.80;;;;;;;28.60;34.59;94220.66;5006605;28;20356;-57
2022/07/31 12:46:55;;;;;;;1.58;1.10;;;;;;;29.37;32.11;94211.84;5007594;28;20247;-57
2022/07/31 12:49:39;;;;;;;1.40;1.13;;;;;;;28.84;34.02;94205.72;5009451;28;20214;-57
2022/07/31 12:52:26;;;;;;;0.85;0.85;;;;;;;29.21;32.58;94207.38;5006895;28;20642;-57
2022/07/31 12:55:10;;;;;;;1.00;0.90;;;;;;;29.68;31.59;94201.88;5002075;28;20806;-56
2022/07/31 12:57:55;;;;;;;1.65;0.90;;;;;;;28.90;33.48;94194.94;5015981;28;20222;-56
2022/07/31 13:00:39;;;;;;;0.85;0.80;;;;;;;29.65;33.13;94197.50;5004686;28;20199;-56
2022/07/31 13:03:23;;;;;;;2.25;0.60;;;;;;;28.86;32.63;94188.44;5005817;28;20254;-56
2022/07/31 13:06:07;;;;;;;2.58;0.98;;;;;;;27.64;33.05;94192.34;5010868;28;20297;-63
2022/07/31 13:08:52;;;;;;;0.80;0.80;;;;;;;28.12;34.58;94186.34;5012032;28;20206;-56
2022/07/31 13:11:36;;;;;;;1.13;1.02;;;;;;;27.74;34.07;94178.03;5008295;28;20365;-56
2022/07/31 13:14:22;;;;;;;1.65;0.98;;;;;;;28.70;33.95;94176.75;5001767;28;20224;-56
2022/07/31 13:17:07;;;;;;;1.20;1.05;;;;;;;27.73;33.67;94171.56;5005705;28;20590;-64
2022/07/31 13:19:51;;;;;;;3.40;1.13;;;;;;;28.10;32.69;94177.69;4991983;28;20579;-57
2022/07/31 13:22:35;;;;;;;1.92;1.15;;;;;;;28.78;32.79;94173.94;4997807;28;20286;-56
2022/07/31 13:25:19;;;;;;;1.20;1.00;;;;;;;28.99;32.05;94166.88;5006724;28;20226;-58